createdAt,value
2022-11-30T00:28:54.576Z,8.07
2022-11-30T00:30:00.594Z,7.50
2022-11-30T00:31:12.461Z,9.00
2022-11-30T00:32:14.668Z,10.66
2022-11-30T00:33:16.534Z,5.29
2022-11-30T00:34:18.403Z,7.15
2022-11-30T00:35:20.305Z,6.77
2022-11-30T00:36:23.546Z,8.39
2022-11-30T00:37:26.234Z,7.05
2022-11-30T00:38:28.244Z,7.55
2022-11-30T00:39:35.289Z,7.19
2022-11-30T00:40:34.244Z,5.89
2022-11-30T00:41:36.126Z,6.87
2022-11-30T00:42:38.319Z,9.75
2022-11-30T00:43:40.773Z,6.75
2022-11-30T00:44:42.642Z,9.81
2022-11-30T00:45:44.560Z,8.37
2022-11-30T00:46:47.004Z,7.45
2022-11-30T00:47:48.919Z,8.03
2022-11-30T00:48:50.838Z,7.63
2022-11-30T00:49:52.713Z,8.69
2022-11-30T00:50:54.693Z,8.13
2022-11-30T00:51:56.644Z,9.21
2022-11-30T00:52:58.515Z,10.69
2022-11-30T00:54:00.462Z,7.59
2022-11-30T00:55:04.373Z,7.28
2022-11-30T00:56:08.260Z,5.37
2022-11-30T00:57:10.639Z,6.09
2022-11-30T00:58:12.714Z,7.31
2022-11-30T00:59:14.588Z,7.62
2022-11-30T01:00:17.710Z,9.59
2022-11-30T01:01:20.146Z,7.05
2022-11-30T01:02:22.112Z,10.14
2022-11-30T01:03:24.025Z,7.61
2022-11-30T01:04:25.925Z,8.95
2022-11-30T01:05:28.904Z,6.23
2022-11-30T01:06:30.988Z,7.74
2022-11-30T01:07:33.997Z,6.43
2022-11-30T01:08:36.368Z,7.02
2022-11-30T01:09:38.247Z,7.13
2022-11-30T01:10:42.575Z,5.83
2022-11-30T01:11:44.516Z,7.48
2022-11-30T01:12:46.385Z,7.23
2022-11-30T01:13:48.295Z,6.53
2022-11-30T01:14:50.156Z,5.82
2022-11-30T01:15:53.411Z,5.63
2022-11-30T01:16:56.492Z,6.79
2022-11-30T01:17:58.986Z,7.53
2022-11-30T01:19:01.726Z,6.22
2022-11-30T01:20:05.271Z,5.63
2022-11-30T01:21:09.130Z,7.52
2022-11-30T01:22:11.225Z,9.37
2022-11-30T01:23:14.506Z,5.67
2022-11-30T01:24:16.527Z,7.26
2022-11-30T01:25:18.387Z,7.23
2022-11-30T01:26:21.384Z,7.86
2022-11-30T01:27:23.303Z,6.89
2022-11-30T01:28:25.198Z,6.04
2022-11-30T01:29:27.077Z,7.53
2022-11-30T01:30:29.123Z,6.01
2022-11-30T01:31:31.259Z,7.30
2022-11-30T01:32:33.126Z,8.99
2022-11-30T01:33:35.408Z,6.99
2022-11-30T01:34:38.234Z,7.49
2022-11-30T01:35:40.131Z,6.95
2022-11-30T01:36:42.209Z,6.77
2022-11-30T01:37:44.270Z,6.92
2022-11-30T01:38:48.936Z,7.77
2022-11-30T01:39:50.834Z,8.52
2022-11-30T01:40:52.887Z,6.00
2022-11-30T01:41:55.057Z,6.77
2022-11-30T01:42:56.931Z,6.74
2022-11-30T01:44:08.691Z,7.55
2022-11-30T01:45:14.856Z,6.87
2022-11-30T01:46:39.971Z,6.17
2022-11-30T01:47:45.618Z,7.13
2022-11-30T01:48:51.307Z,7.94
2022-11-30T01:49:59.963Z,5.76
2022-11-30T01:51:02.061Z,7.34
2022-11-30T01:54:22.797Z,7.77
2022-11-30T01:55:34.306Z,7.39
2022-11-30T01:56:40.138Z,7.07
2022-11-30T01:57:46.587Z,9.48
2022-11-30T01:58:49.074Z,6.78
2022-11-30T01:59:54.302Z,6.29
2022-11-30T02:00:56.339Z,6.95
2022-11-30T02:01:59.010Z,8.40
2022-11-30T02:03:22.091Z,7.36
2022-11-30T02:04:33.513Z,7.49
2022-11-30T02:05:38.329Z,6.41
2022-11-30T02:06:41.640Z,7.15
2022-11-30T02:07:46.828Z,5.11
2022-11-30T02:08:48.868Z,7.99
2022-11-30T02:09:50.894Z,8.99
2022-11-30T02:10:56.651Z,8.21
2022-11-30T02:12:01.338Z,8.35
2022-11-30T02:13:19.562Z,6.91
2022-11-30T02:14:34.025Z,9.47
2022-11-30T02:15:54.912Z,7.18
2022-11-30T02:17:12.947Z,8.14
2022-11-30T02:18:18.742Z,6.74
2022-11-30T02:19:45.920Z,7.36
2022-11-30T02:21:00.458Z,5.72
2022-11-30T02:22:08.959Z,7.26
2022-11-30T02:23:30.117Z,7.89
2022-11-30T02:24:36.538Z,8.37
2022-11-30T02:26:04.389Z,9.54
2022-11-30T02:27:16.077Z,6.09
2022-11-30T02:28:22.091Z,6.56
2022-11-30T02:29:39.897Z,6.80
2022-11-30T02:30:45.359Z,6.52
2022-11-30T02:32:06.363Z,5.24
2022-11-30T02:33:12.141Z,6.77
2022-11-30T02:34:16.782Z,6.17
2022-11-30T02:35:22.166Z,9.59
2022-11-30T02:36:26.483Z,5.56
2022-11-30T02:37:30.953Z,6.12
2022-11-30T02:38:33.446Z,6.81
2022-11-30T02:39:35.426Z,6.17
2022-11-30T02:40:37.586Z,6.63
2022-11-30T02:41:40.470Z,6.23
2022-11-30T02:42:42.372Z,7.64
2022-11-30T02:43:45.778Z,5.83
2022-11-30T02:44:51.518Z,6.74
2022-11-30T02:45:57.293Z,6.49
2022-11-30T02:47:33.622Z,7.14
2022-11-30T02:48:45.059Z,7.07
2022-11-30T02:51:09.441Z,6.40
2022-11-30T02:52:15.334Z,7.84
2022-11-30T02:53:18.427Z,6.94
2022-11-30T02:54:20.534Z,6.96
2022-11-30T02:55:25.053Z,6.89
2022-11-30T02:56:27.741Z,7.01
2022-11-30T02:57:29.825Z,6.99
2022-11-30T02:58:32.002Z,4.76
2022-11-30T02:59:34.216Z,6.75
2022-11-30T03:00:36.202Z,5.79
2022-11-30T03:01:39.234Z,7.08
2022-11-30T03:02:41.820Z,5.12
2022-11-30T03:03:43.753Z,6.62
2022-11-30T03:04:45.914Z,5.45
2022-11-30T03:05:48.201Z,6.41
2022-11-30T03:06:50.342Z,6.98
2022-11-30T03:07:52.249Z,4.93
2022-11-30T03:08:54.298Z,5.91
2022-11-30T03:09:56.681Z,6.75
2022-11-30T03:11:02.085Z,5.60
2022-11-30T03:12:06.472Z,6.57
2022-11-30T03:13:08.407Z,6.91
2022-11-30T03:14:10.259Z,6.88
2022-11-30T03:15:12.146Z,6.81
2022-11-30T03:16:14.180Z,5.89
2022-11-30T03:17:18.047Z,6.99
2022-11-30T03:18:19.906Z,6.51
2022-11-30T03:19:21.762Z,5.79
2022-11-30T03:20:23.764Z,6.39
2022-11-30T03:21:28.830Z,8.18
2022-11-30T03:22:30.725Z,13.70
2022-11-30T03:23:35.509Z,7.51
2022-11-30T03:24:37.403Z,6.96
2022-11-30T03:25:39.265Z,6.49
2022-11-30T03:26:41.273Z,6.15
2022-11-30T03:27:43.282Z,6.78
2022-11-30T03:28:45.146Z,7.64
2022-11-30T03:29:47.021Z,6.61
2022-11-30T03:30:49.342Z,6.31
2022-11-30T03:31:51.392Z,6.81
2022-11-30T03:32:53.992Z,4.89
2022-11-30T03:33:55.852Z,6.00
2022-11-30T03:34:57.810Z,6.93
2022-11-30T03:37:12.441Z,5.65
2022-11-30T03:38:14.305Z,5.86
2022-11-30T03:39:16.203Z,4.51
2022-11-30T03:40:18.358Z,7.35
2022-11-30T03:41:20.311Z,6.04
2022-11-30T03:42:22.214Z,5.85
2022-11-30T03:43:24.081Z,8.13
2022-11-30T03:44:26.058Z,6.87
2022-11-30T03:45:27.893Z,7.43
2022-11-30T03:46:31.210Z,5.14
2022-11-30T03:47:33.276Z,5.23
2022-11-30T03:48:35.816Z,6.61
2022-11-30T03:49:37.718Z,8.29
2022-11-30T03:50:39.657Z,10.03
2022-11-30T03:51:41.530Z,6.96
2022-11-30T03:52:43.988Z,8.03
2022-11-30T03:53:45.866Z,6.99
2022-11-30T03:54:47.986Z,6.41
2022-11-30T03:55:56.353Z,5.38
2022-11-30T03:56:58.337Z,5.57
2022-11-30T03:58:00.257Z,7.07
2022-11-30T03:59:02.433Z,4.55
2022-11-30T05:59:03.062Z,8.83
2022-11-30T06:00:08.107Z,7.17
2022-11-30T06:01:21.577Z,7.71
2022-11-30T06:02:27.949Z,6.87
2022-11-30T06:03:29.103Z,8.22
2022-11-30T06:04:33.349Z,7.96
2022-11-30T06:05:35.246Z,8.25
2022-11-30T06:06:37.405Z,6.76
2022-11-30T06:07:40.566Z,7.88
2022-11-30T06:08:44.633Z,10.48
2022-11-30T06:09:46.512Z,8.43
2022-11-30T06:10:48.674Z,7.05
2022-11-30T06:11:52.643Z,9.25
2022-11-30T06:12:54.575Z,8.49
2022-11-30T06:13:56.523Z,8.96
2022-11-30T06:14:58.727Z,8.45
2022-11-30T06:16:02.384Z,9.11
2022-11-30T06:17:04.534Z,7.18
2022-11-30T06:18:07.821Z,8.93
2022-11-30T06:19:10.007Z,8.56
2022-11-30T06:20:13.204Z,7.85
2022-11-30T06:21:17.360Z,8.69
2022-11-30T06:22:19.723Z,8.70
2022-11-30T06:23:21.582Z,6.91
2022-11-30T06:24:23.433Z,9.43
2022-11-30T06:25:26.664Z,7.27
2022-11-30T06:26:28.627Z,7.00
2022-11-30T06:27:31.561Z,6.75
2022-11-30T06:28:34.452Z,8.16
2022-11-30T06:29:36.397Z,13.33
2022-11-30T06:30:38.477Z,8.89
2022-11-30T06:31:40.410Z,6.34
2022-11-30T06:32:48.142Z,8.08
2022-11-30T06:33:50.042Z,8.91
2022-11-30T06:34:51.904Z,8.77
2022-11-30T06:35:54.391Z,8.70
2022-11-30T06:36:57.317Z,8.25
2022-11-30T06:37:59.276Z,8.26
2022-11-30T06:39:01.126Z,6.69
2022-11-30T06:40:06.979Z,7.38
2022-11-30T06:41:09.497Z,8.77
2022-11-30T06:42:11.355Z,7.22
2022-11-30T06:43:13.456Z,7.73
2022-11-30T06:44:15.403Z,7.62
2022-11-30T06:45:17.521Z,6.79
2022-11-30T06:46:19.777Z,7.51
2022-11-30T06:47:21.939Z,7.51
2022-11-30T06:48:24.024Z,8.33
2022-11-30T06:49:25.891Z,8.72
2022-11-30T06:50:28.075Z,7.71
2022-11-30T06:51:29.944Z,8.91
2022-11-30T06:52:32.752Z,8.46
2022-11-30T06:53:34.812Z,8.55
2022-11-30T06:54:36.673Z,10.53
2022-11-30T06:55:38.514Z,7.92
2022-11-30T06:56:40.491Z,6.90
2022-11-30T06:57:42.980Z,7.91
2022-11-30T06:58:45.196Z,7.18
2022-11-30T06:59:47.113Z,12.36
2022-11-30T07:00:49.171Z,8.22
2022-11-30T07:01:51.277Z,9.65
2022-11-30T07:02:53.165Z,9.19
2022-11-30T07:03:55.046Z,9.04
2022-11-30T07:04:56.992Z,7.02
2022-11-30T07:05:58.874Z,7.83
2022-11-30T07:07:01.563Z,9.88
2022-11-30T07:08:04.442Z,7.16
2022-11-30T07:09:06.325Z,9.79
2022-11-30T07:10:10.157Z,9.38
2022-11-30T07:11:13.472Z,7.56
2022-11-30T07:12:15.384Z,9.08
2022-11-30T07:13:18.621Z,7.34
2022-11-30T07:14:21.441Z,8.33
2022-11-30T07:15:23.412Z,9.26
2022-11-30T07:16:25.538Z,10.65
2022-11-30T07:17:29.238Z,8.41
2022-11-30T07:18:32.221Z,7.24
2022-11-30T07:19:34.745Z,8.33
2022-11-30T07:20:39.010Z,8.30
2022-11-30T07:21:41.056Z,7.65
2022-11-30T07:22:42.932Z,8.01
2022-11-30T07:23:44.787Z,9.91
2022-11-30T07:24:46.953Z,9.98
2022-11-30T07:25:53.774Z,8.66
2022-11-30T07:26:57.991Z,9.83
2022-11-30T07:28:00.994Z,9.66
2022-11-30T07:29:02.997Z,9.85
2022-11-30T07:30:06.514Z,8.15
2022-11-30T07:31:29.868Z,8.51
2022-11-30T07:32:31.916Z,10.11
2022-11-30T07:33:33.783Z,9.42
2022-11-30T07:34:35.670Z,8.51
2022-11-30T07:35:37.726Z,8.43
2022-11-30T07:36:39.699Z,9.75
2022-11-30T07:37:41.688Z,10.39
2022-11-30T07:38:44.594Z,7.50
2022-11-30T07:39:46.476Z,9.67
2022-11-30T07:40:48.519Z,7.67
2022-11-30T07:41:50.383Z,8.55
2022-11-30T07:42:54.709Z,8.33
2022-11-30T07:43:56.966Z,8.22
2022-11-30T07:44:59.553Z,8.76
2022-11-30T07:46:02.547Z,8.96
2022-11-30T07:47:04.523Z,10.21
2022-11-30T07:48:06.523Z,9.05
2022-11-30T07:49:09.819Z,8.95
2022-11-30T07:50:11.828Z,8.93
2022-11-30T07:52:26.518Z,10.58
2022-11-30T07:53:28.425Z,8.67
2022-11-30T07:54:30.505Z,9.13
2022-11-30T07:55:32.350Z,9.53
2022-11-30T07:56:34.411Z,8.69
2022-11-30T07:57:36.487Z,8.25
2022-11-30T07:58:40.234Z,7.25
2022-11-30T07:59:42.114Z,9.48
2022-11-30T08:00:44.235Z,10.87
2022-11-30T08:01:46.624Z,8.21
2022-11-30T08:02:51.369Z,9.01
2022-11-30T08:03:54.408Z,8.68
2022-11-30T08:04:56.344Z,9.30
2022-11-30T08:06:07.679Z,7.23
2022-11-30T08:07:09.595Z,8.76
2022-11-30T08:08:11.480Z,9.92
2022-11-30T08:09:20.513Z,8.51
2022-11-30T08:10:21.108Z,9.26
2022-11-30T08:11:26.505Z,9.17
2022-11-30T08:12:28.396Z,8.57
2022-11-30T08:13:31.001Z,8.64
2022-11-30T08:14:45.413Z,10.29
2022-11-30T08:15:37.005Z,8.96
2022-11-30T08:16:41.719Z,9.36
2022-11-30T08:17:43.660Z,8.68
2022-11-30T08:18:46.580Z,10.76
2022-11-30T08:19:48.437Z,9.76
2022-11-30T08:20:59.155Z,9.60
2022-11-30T08:22:01.100Z,9.08
2022-11-30T08:23:03.055Z,10.82
2022-11-30T08:24:05.565Z,9.04
2022-11-30T08:25:10.455Z,10.96
2022-11-30T08:26:16.141Z,9.63
2022-11-30T08:27:19.038Z,11.03
2022-11-30T08:28:20.910Z,8.42
2022-11-30T08:29:22.763Z,8.67
2022-11-30T08:30:29.354Z,8.57
2022-11-30T08:31:34.255Z,11.89
2022-11-30T08:32:36.277Z,10.33
2022-11-30T08:33:38.398Z,8.13
2022-11-30T08:34:40.303Z,9.55
2022-11-30T08:35:42.171Z,8.54
2022-11-30T08:36:50.365Z,9.54
2022-11-30T08:37:47.953Z,8.90
2022-11-30T08:38:49.790Z,10.05
2022-11-30T08:39:51.636Z,10.73
2022-11-30T08:40:57.158Z,10.47
2022-11-30T08:42:00.107Z,10.41
2022-11-30T08:43:02.046Z,11.00
2022-11-30T08:44:04.777Z,11.37
2022-11-30T08:45:07.634Z,10.17
2022-11-30T08:47:17.308Z,12.51
2022-11-30T08:48:19.952Z,7.50
2022-11-30T08:49:24.167Z,10.55
2022-11-30T08:50:26.430Z,10.22
2022-11-30T08:51:37.736Z,8.88
2022-11-30T08:52:32.131Z,8.08
2022-11-30T08:53:36.664Z,9.83
2022-11-30T08:54:39.329Z,11.32
2022-11-30T08:55:41.221Z,9.45
2022-11-30T08:56:43.203Z,9.29
2022-11-30T08:57:45.084Z,8.24
2022-11-30T08:58:47.360Z,7.15
2022-11-30T08:59:49.225Z,10.23
2022-11-30T09:01:53.611Z,9.90
2022-11-30T09:02:56.217Z,7.21
2022-11-30T09:03:58.371Z,10.56
2022-11-30T09:05:00.232Z,9.13
2022-11-30T09:06:19.345Z,12.58
2022-11-30T09:07:21.384Z,9.24
2022-11-30T09:08:23.443Z,8.85
2022-11-30T09:09:25.839Z,9.19
2022-11-30T09:10:28.051Z,9.29
2022-11-30T09:11:33.256Z,9.41
2022-11-30T09:12:36.983Z,9.48
2022-11-30T09:13:40.380Z,7.74
2022-11-30T09:14:42.297Z,9.06
2022-11-30T09:15:44.202Z,10.07
2022-11-30T09:16:47.185Z,10.14
2022-11-30T09:17:49.188Z,8.31
2022-11-30T09:18:52.301Z,8.36
2022-11-30T09:19:54.640Z,9.36
2022-11-30T09:21:01.510Z,9.49
2022-11-30T09:22:03.526Z,8.82
2022-11-30T09:23:05.384Z,9.71
2022-11-30T09:24:07.387Z,9.52
2022-11-30T09:25:09.650Z,9.63
2022-11-30T09:26:13.787Z,9.95
2022-11-30T09:27:15.742Z,7.88
2022-11-30T09:28:17.608Z,8.85
2022-11-30T09:29:19.510Z,7.05
2022-11-30T09:30:21.989Z,9.62
2022-11-30T09:31:25.982Z,9.29
2022-11-30T09:32:28.578Z,9.28
2022-11-30T09:33:30.802Z,10.56
2022-11-30T09:34:33.009Z,11.00
2022-11-30T09:35:34.874Z,8.35
2022-11-30T09:36:36.899Z,11.39
2022-11-30T09:37:38.833Z,9.05
2022-11-30T09:38:41.792Z,10.17
2022-11-30T09:39:43.656Z,8.35
2022-11-30T09:40:46.113Z,8.29
2022-11-30T09:42:19.697Z,8.75
2022-11-30T09:43:34.475Z,7.46
2022-11-30T09:44:58.172Z,7.79
2022-11-30T09:46:03.508Z,8.90
2022-11-30T09:47:09.339Z,8.72
2022-11-30T09:48:21.007Z,8.73
2022-11-30T09:49:26.680Z,8.68
2022-11-30T09:50:32.932Z,11.53
2022-11-30T09:51:38.589Z,10.18
2022-11-30T09:52:43.995Z,9.14
2022-11-30T09:53:49.709Z,9.99
2022-11-30T09:54:52.364Z,6.94
2022-11-30T09:55:56.288Z,10.27
2022-11-30T09:57:00.858Z,11.39
2022-11-30T09:58:05.849Z,10.74
2022-11-30T09:59:17.557Z,10.77
2022-11-30T10:00:21.901Z,12.27
2022-11-30T10:01:24.313Z,9.38
2022-11-30T14:05:48.870Z,13.24
2022-11-30T14:06:53.441Z,13.43
2022-11-30T14:08:02.125Z,9.80
2022-11-30T14:09:16.335Z,12.66
2022-11-30T14:10:32.831Z,12.03
2022-11-30T14:11:41.459Z,12.20
2022-11-30T14:12:44.800Z,11.79
2022-11-30T14:13:46.665Z,16.27
2022-11-30T14:14:48.843Z,14.81
2022-11-30T14:15:54.035Z,14.85
2022-11-30T14:16:57.026Z,14.17
2022-11-30T14:18:02.660Z,17.39
2022-11-30T14:19:05.049Z,14.67
2022-11-30T14:20:11.045Z,13.87
2022-11-30T14:22:39.439Z,17.67
2022-11-30T14:23:45.084Z,19.38
2022-11-30T14:24:49.204Z,13.61
2022-11-30T14:25:57.657Z,18.99
2022-11-30T14:27:02.231Z,18.34
2022-11-30T14:28:07.023Z,16.69
2022-11-30T14:29:18.465Z,16.58
2022-11-30T14:30:22.765Z,16.98
2022-11-30T14:31:26.609Z,15.64
2022-11-30T14:32:38.407Z,17.62
2022-11-30T14:33:49.858Z,18.97
2022-11-30T14:35:58.975Z,19.28
2022-11-30T14:37:05.039Z,14.19
2022-11-30T14:38:25.932Z,14.28
2022-11-30T14:39:34.361Z,17.18
2022-11-30T14:40:36.360Z,16.32
2022-11-30T14:41:42.568Z,18.08
2022-11-30T14:43:01.787Z,18.81
2022-11-30T14:44:07.376Z,18.50
2022-11-30T14:45:24.125Z,18.27
2022-11-30T14:46:26.763Z,13.34
2022-11-30T14:47:34.270Z,15.18
2022-11-30T14:48:37.065Z,17.42
2022-11-30T14:49:45.407Z,18.71
2022-11-30T14:50:57.664Z,18.34
2022-11-30T14:52:03.286Z,13.94
2022-11-30T14:53:26.703Z,15.45
2022-11-30T14:54:47.553Z,16.24
2022-11-30T15:00:46.214Z,13.68
2022-11-30T15:04:08.620Z,15.19
2022-11-30T15:05:25.255Z,18.06
2022-11-30T15:06:31.614Z,17.18
2022-11-30T15:07:36.186Z,15.22
2022-11-30T15:08:44.088Z,17.83
2022-11-30T15:09:49.952Z,23.13
2022-11-30T15:10:54.805Z,18.27
2022-11-30T15:11:57.816Z,20.49
2022-11-30T15:13:01.315Z,17.18
2022-11-30T15:14:09.184Z,18.70
2022-11-30T15:15:23.365Z,18.13
2022-11-30T15:16:27.941Z,18.53
2022-11-30T15:17:31.244Z,17.38
2022-11-30T15:18:33.281Z,17.82
2022-11-30T15:19:35.340Z,16.59
2022-11-30T15:20:43.488Z,18.19
2022-11-30T15:21:48.665Z,18.24
2022-11-30T15:22:51.234Z,18.18
2022-11-30T15:23:56.106Z,15.88
2022-11-30T15:24:58.152Z,17.24
2022-11-30T15:26:03.757Z,17.42
2022-11-30T15:27:11.209Z,15.79
2022-11-30T15:28:19.837Z,15.54
2022-11-30T15:29:25.615Z,15.77
2022-11-30T15:30:29.019Z,19.39
2022-11-30T15:31:34.816Z,14.06
2022-11-30T15:32:36.884Z,17.17
2022-11-30T15:33:50.113Z,17.76
2022-11-30T15:37:12.787Z,18.73
2022-11-30T15:38:20.539Z,18.51
2022-11-30T15:39:25.136Z,21.09
2022-11-30T15:40:32.863Z,19.14
2022-11-30T15:41:35.917Z,19.79
2022-11-30T15:42:39.735Z,21.09
2022-11-30T15:43:41.886Z,17.00
2022-11-30T15:44:44.972Z,20.00
2022-11-30T15:48:22.634Z,26.87
2022-11-30T15:49:28.003Z,27.27
2022-11-30T15:50:33.793Z,27.04
2022-11-30T15:51:41.831Z,24.58
2022-11-30T15:52:46.896Z,25.77
2022-11-30T15:53:50.841Z,25.92
2022-11-30T15:54:58.059Z,22.38
2022-11-30T15:56:08.595Z,26.87
2022-11-30T15:57:11.632Z,24.32
2022-11-30T15:58:34.937Z,26.59
2022-11-30T15:59:36.945Z,31.33
2022-11-30T16:00:38.906Z,27.81
2022-11-30T16:01:55.421Z,24.85
2022-11-30T16:03:12.241Z,27.98
2022-11-30T16:04:14.143Z,21.47
2022-11-30T16:05:19.791Z,22.97
2022-11-30T16:06:24.507Z,20.98
2022-11-30T16:07:32.481Z,24.48
2022-11-30T16:08:34.494Z,17.67
2022-11-30T16:09:36.442Z,19.22
2022-11-30T16:10:39.104Z,22.28
2022-11-30T16:11:40.989Z,20.30
2022-11-30T16:12:43.992Z,22.38
2022-11-30T16:13:46.371Z,23.49
2022-11-30T16:14:48.244Z,21.13
2022-11-30T16:15:51.645Z,20.22
2022-11-30T16:16:55.018Z,18.28
2022-11-30T16:18:03.694Z,20.26
2022-11-30T16:19:05.689Z,17.46
2022-11-30T16:20:10.347Z,21.91
2022-11-30T16:21:15.154Z,18.68
2022-11-30T16:22:17.072Z,18.06
2022-11-30T16:23:19.921Z,15.33
2022-11-30T16:24:21.821Z,20.97
2022-11-30T16:25:26.089Z,24.10
2022-11-30T16:26:49.882Z,19.86
2022-11-30T16:27:31.946Z,17.24
2022-11-30T16:28:35.301Z,21.47
2022-11-30T16:29:37.302Z,19.57
2022-11-30T16:30:41.264Z,17.80
2022-11-30T16:31:43.369Z,18.52
2022-11-30T16:32:46.921Z,17.11
2022-11-30T16:33:50.681Z,15.36
2022-11-30T16:34:52.728Z,18.94
2022-11-30T16:36:05.059Z,17.03
2022-11-30T16:37:10.681Z,20.64
2022-11-30T16:38:12.588Z,16.36
2022-11-30T16:39:14.463Z,18.05
2022-11-30T16:40:17.317Z,17.11
2022-11-30T16:41:22.858Z,16.32
2022-11-30T16:42:24.799Z,16.04
2022-11-30T16:43:26.709Z,16.16
2022-11-30T16:44:28.574Z,15.71
2022-11-30T16:45:36.631Z,19.86
2022-11-30T16:46:38.883Z,14.91
2022-11-30T16:47:42.682Z,19.55
2022-11-30T16:48:45.070Z,18.04
2022-11-30T16:49:47.162Z,17.86
2022-11-30T16:50:49.535Z,19.76
2022-11-30T16:51:51.448Z,18.95
2022-11-30T16:52:53.428Z,19.15
2022-11-30T16:53:55.979Z,18.21
2022-11-30T16:54:59.865Z,22.30
2022-11-30T16:56:01.857Z,23.11
2022-11-30T16:57:05.636Z,22.30
2022-11-30T16:58:07.740Z,18.18
2022-11-30T16:59:15.000Z,16.53
2022-11-30T17:00:16.632Z,21.45
2022-11-30T17:01:33.399Z,17.47
2022-11-30T17:02:36.013Z,15.84
2022-11-30T17:03:38.611Z,17.06
2022-11-30T17:04:40.556Z,17.65
2022-11-30T17:05:42.508Z,15.43
2022-11-30T17:06:49.949Z,20.82
2022-11-30T17:07:50.152Z,13.48
2022-11-30T17:08:52.851Z,20.11
2022-11-30T17:09:54.723Z,14.29
2022-11-30T17:10:56.712Z,14.78
2022-11-30T17:11:58.760Z,13.37
2022-11-30T17:13:00.655Z,16.47
2022-11-30T17:14:03.066Z,12.78
2022-11-30T17:15:07.574Z,15.19
2022-11-30T17:16:10.044Z,16.78
2022-11-30T17:17:13.405Z,16.10
2022-11-30T17:18:15.518Z,15.81
2022-11-30T17:19:17.372Z,15.59
2022-11-30T17:20:19.673Z,14.85
2022-11-30T17:21:27.062Z,13.89
2022-11-30T17:22:29.016Z,15.96
2022-11-30T17:23:31.133Z,13.33
2022-11-30T17:24:33.004Z,15.75
2022-11-30T17:25:34.895Z,16.33
2022-11-30T17:26:37.156Z,16.81
2022-11-30T17:27:40.291Z,14.30
2022-11-30T17:28:42.216Z,16.64
2022-11-30T17:29:44.106Z,15.60
2022-11-30T17:30:46.274Z,20.69
2022-11-30T17:31:49.697Z,14.40
2022-11-30T17:32:51.604Z,18.95
2022-11-30T17:33:55.841Z,16.61
2022-11-30T17:34:57.741Z,16.36
2022-11-30T17:36:02.101Z,18.69
2022-11-30T17:37:04.034Z,14.39
2022-11-30T17:38:05.982Z,16.09
2022-11-30T17:39:08.859Z,14.63
2022-11-30T17:40:12.694Z,16.91
2022-11-30T17:41:19.342Z,14.76
2022-11-30T17:42:20.602Z,16.32
2022-11-30T17:43:22.782Z,17.00
2022-11-30T17:44:24.657Z,16.90
2022-11-30T17:45:26.606Z,19.81
2022-11-30T17:46:28.653Z,13.62
2022-11-30T17:47:30.790Z,17.44
2022-11-30T17:48:32.991Z,16.97
2022-11-30T17:49:34.840Z,17.87
2022-11-30T17:50:40.038Z,18.32
2022-11-30T17:51:42.004Z,17.41
2022-11-30T17:52:44.138Z,18.38
2022-11-30T17:53:46.115Z,17.46
2022-11-30T17:54:48.287Z,14.02
2022-11-30T17:55:50.461Z,14.14
2022-11-30T17:56:52.508Z,14.88
2022-11-30T17:57:54.484Z,10.39
2022-11-30T17:58:56.330Z,17.03
2022-11-30T17:59:58.180Z,15.20
2022-11-30T18:01:00.183Z,14.09
2022-11-30T18:02:02.115Z,11.37
2022-11-30T18:03:06.035Z,12.39
2022-11-30T18:04:08.087Z,9.24
2022-11-30T18:05:09.955Z,11.66
2022-11-30T18:06:13.596Z,12.07
2022-11-30T18:07:17.776Z,10.83
2022-11-30T18:08:19.807Z,10.56
2022-11-30T18:09:22.483Z,11.69
2022-11-30T18:10:24.451Z,13.63
2022-11-30T18:11:26.408Z,11.12
2022-11-30T18:12:29.161Z,10.82
2022-11-30T18:13:31.184Z,8.66
2022-11-30T18:14:33.658Z,11.85
2022-11-30T18:15:35.613Z,9.47
2022-11-30T18:16:38.642Z,14.85
2022-11-30T18:17:40.641Z,11.17
2022-11-30T18:18:47.761Z,11.97
2022-11-30T18:19:47.346Z,10.54
2022-11-30T18:20:49.299Z,12.93
2022-11-30T18:21:51.168Z,15.33
2022-11-30T18:22:53.563Z,16.45
2022-11-30T18:23:57.470Z,13.59
2022-11-30T18:24:59.538Z,13.20
2022-11-30T18:26:03.965Z,10.97
2022-11-30T18:27:05.881Z,14.31
2022-11-30T18:28:07.861Z,15.58
2022-11-30T18:29:10.421Z,12.53
